Randolph, Missouri
Current Conditions -  °F | °C
As of 7:54 AM on Saturday 20 Dec 2014 (Local Time) from KMKC Reporting Station
Overcast Overcast  
Wind Chill: 26°   Ceiling: 1400
Heat Index: 35°   Visibility: 9mi
Dew Point: 30°   Wind: 13mph
Humidity: 82%   Direction: 180°S
Pressure: 30.19"   Gusts: NA
Location:  39.1628°N, 94.4478°W
Report Text: KMKC 201354Z AUTO 18011KT 9SM OVC014 02/M01 A3019 RMK AO2 SLP229 T00171011
Loading
Personal Weather Stations






























Interactive Weather Map New forecast layout! Learn more

10-Day Weather Forecast

Advertisements
Track Severe Weather on mobile